sensor_id;sensor_type;location;lat;lon;timestamp;pressure;altitude;pressure_sealevel;temperature;humidity
55263;BME280;41125;48.752;9.168;2022-10-30T00:00:29;97267.06;;;17.87;52.89
55263;BME280;41125;48.752;9.168;2022-10-30T00:01:00;97267.38;;;17.85;53.29
55263;BME280;41125;48.752;9.168;2022-10-30T00:01:31;97261.91;;;17.85;53.27
55263;BME280;41125;48.752;9.168;2022-10-30T00:02:03;97267.38;;;17.85;53.03
55263;BME280;41125;48.752;9.168;2022-10-30T00:02:34;97272.06;;;17.85;53.35
55263;BME280;41125;48.752;9.168;2022-10-30T00:03:09;97269.31;;;17.85;53.33
55263;BME280;41125;48.752;9.168;2022-10-30T00:03:40;97268.53;;;17.84;53.21
55263;BME280;41125;48.752;9.168;2022-10-30T00:04:12;97264.97;;;17.84;52.97
55263;BME280;41125;48.752;9.168;2022-10-30T00:04:43;97269.66;;;17.83;52.86
55263;BME280;41125;48.752;9.168;2022-10-30T00:05:15;97268.03;;;17.82;52.91
55263;BME280;41125;48.752;9.168;2022-10-30T00:05:48;97268.84;;;17.83;52.79
55263;BME280;41125;48.752;9.168;2022-10-30T00:06:21;97270.31;;;17.80;53.10
55263;BME280;41125;48.752;9.168;2022-10-30T00:06:53;97264.81;;;17.80;53.05
55263;BME280;41125;48.752;9.168;2022-10-30T00:07:27;97266.75;;;17.80;53.04
55263;BME280;41125;48.752;9.168;2022-10-30T00:07:58;97267.09;;;17.78;53.13
55263;BME280;41125;48.752;9.168;2022-10-30T00:08:30;97267.09;;;17.78;53.09
55263;BME280;41125;48.752;9.168;2022-10-30T00:09:01;97267.09;;;17.78;53.15
55263;BME280;41125;48.752;9.168;2022-10-30T00:09:32;97267.09;;;17.78;53.39
55263;BME280;41125;48.752;9.168;2022-10-30T00:10:04;97263.88;;;17.76;53.49
55263;BME280;41125;48.752;9.168;2022-10-30T00:10:36;97258.38;;;17.76;53.18
55263;BME280;41125;48.752;9.168;2022-10-30T00:11:09;97266.63;;;17.76;53.17
55263;BME280;41125;48.752;9.168;2022-10-30T00:11:41;97265.97;;;17.79;53.65
55263;BME280;41125;48.752;9.168;2022-10-30T00:12:12;97263.22;;;17.79;53.18
55263;BME280;41125;48.752;9.168;2022-10-30T00:12:44;97263.22;;;17.79;53.30
55263;BME280;41125;48.752;9.168;2022-10-30T00:13:16;97264.03;;;17.80;53.30
55263;BME280;41125;48.752;9.168;2022-10-30T00:13:47;97265.47;;;17.77;53.56
55263;BME280;41125;48.752;9.168;2022-10-30T00:14:19;97266.63;;;17.76;53.59
55263;BME280;41125;48.752;9.168;2022-10-30T00:14:50;97262.25;;;17.75;53.48
55263;BME280;41125;48.752;9.168;2022-10-30T00:15:22;97259.03;;;17.73;53.67
55263;BME280;41125;48.752;9.168;2022-10-30T00:15:53;97259.03;;;17.73;53.31
55263;BME280;41125;48.752;9.168;2022-10-30T00:16:25;97258.72;;;17.74;53.48
55263;BME280;41125;48.752;9.168;2022-10-30T00:16:56;97263.72;;;17.72;53.32
55263;BME280;41125;48.752;9.168;2022-10-30T00:17:27;97258.22;;;17.72;53.24
55263;BME280;41125;48.752;9.168;2022-10-30T00:18:02;97262.91;;;17.72;53.75
55263;BME280;41125;48.752;9.168;2022-10-30T00:18:35;97254.34;;;17.73;53.37
55263;BME280;41125;48.752;9.168;2022-10-30T00:19:07;97257.25;;;17.77;53.65
55263;BME280;41125;48.752;9.168;2022-10-30T00:19:38;97264.34;;;17.78;52.91
55263;BME280;41125;48.752;9.168;2022-10-30T00:20:10;97257.25;;;17.77;53.13
55263;BME280;41125;48.752;9.168;2022-10-30T00:20:41;97257.25;;;17.77;52.91
55263;BME280;41125;48.752;9.168;2022-10-30T00:21:14;97263.06;;;17.75;53.34
55263;BME280;41125;48.752;9.168;2022-10-30T00:21:47;97258.38;;;17.76;53.23
55263;BME280;41125;48.752;9.168;2022-10-30T00:22:18;97256.78;;;17.75;53.34
55263;BME280;41125;48.752;9.168;2022-10-30T00:22:53;97255.50;;;17.72;53.37
55263;BME280;41125;48.752;9.168;2022-10-30T00:23:24;97256.94;;;17.70;53.52
55263;BME280;41125;48.752;9.168;2022-10-30T00:23:55;97251.00;;;17.68;53.70
55263;BME280;41125;48.752;9.168;2022-10-30T00:24:26;97256.16;;;17.69;53.58
55263;BME280;41125;48.752;9.168;2022-10-30T00:24:58;97254.22;;;17.70;53.31
55263;BME280;41125;48.752;9.168;2022-10-30T00:25:29;97251.13;;;17.71;53.13
55263;BME280;41125;48.752;9.168;2022-10-30T00:26:03;97244.84;;;17.71;53.01
55263;BME280;41125;48.752;9.168;2022-10-30T00:26:34;97250.34;;;17.71;53.23
55263;BME280;41125;48.752;9.168;2022-10-30T00:27:06;97253.88;;;17.71;53.20
55263;BME280;41125;48.752;9.168;2022-10-30T00:27:37;97249.53;;;17.70;53.90
55263;BME280;41125;48.752;9.168;2022-10-30T00:28:08;97253.41;;;17.69;53.26
55263;BME280;41125;48.752;9.168;2022-10-30T00:28:40;97244.69;;;17.67;53.29
55263;BME280;41125;48.752;9.168;2022-10-30T00:29:11;97257.66;;;17.67;53.36
55263;BME280;41125;48.752;9.168;2022-10-30T00:29:42;97254.91;;;17.67;53.58
55263;BME280;41125;48.752;9.168;2022-10-30T00:30:14;97250.53;;;17.66;53.20
55263;BME280;41125;48.752;9.168;2022-10-30T00:30:46;97253.28;;;17.66;53.55
55263;BME280;41125;48.752;9.168;2022-10-30T00:31:18;97255.22;;;17.65;53.32
55263;BME280;41125;48.752;9.168;2022-10-30T00:31:50;97254.41;;;17.65;53.78
55263;BME280;41125;48.752;9.168;2022-10-30T00:32:21;97248.09;;;17.64;53.46
55263;BME280;41125;48.752;9.168;2022-10-30T00:32:53;97249.22;;;17.63;53.62
55263;BME280;41125;48.752;9.168;2022-10-30T00:33:24;97254.25;;;17.61;53.23
55263;BME280;41125;48.752;9.168;2022-10-30T00:33:55;97246.81;;;17.62;53.31
55263;BME280;41125;48.752;9.168;2022-10-30T00:34:26;97248.44;;;17.63;53.49
55263;BME280;41125;48.752;9.168;2022-10-30T00:34:58;97247.28;;;17.64;53.23
55263;BME280;41125;48.752;9.168;2022-10-30T00:35:32;97244.53;;;17.64;53.45
55263;BME280;41125;48.752;9.168;2022-10-30T00:36:04;97247.78;;;17.66;53.58
55263;BME280;41125;48.752;9.168;2022-10-30T00:36:35;97244.53;;;17.64;53.65
55263;BME280;41125;48.752;9.168;2022-10-30T00:37:07;97243.75;;;17.63;53.51
55263;BME280;41125;48.752;9.168;2022-10-30T00:37:38;97237.44;;;17.63;53.08
55263;BME280;41125;48.752;9.168;2022-10-30T00:38:11;97241.81;;;17.64;53.30
55263;BME280;41125;48.752;9.168;2022-10-30T00:38:42;97245.34;;;17.64;53.45
55263;BME280;41125;48.752;9.168;2022-10-30T00:39:14;97252.78;;;17.64;53.57
55263;BME280;41125;48.752;9.168;2022-10-30T00:39:45;97243.75;;;17.63;53.28
55263;BME280;41125;48.752;9.168;2022-10-30T00:40:16;97250.03;;;17.64;53.29
55263;BME280;41125;48.752;9.168;2022-10-30T00:40:48;97241.81;;;17.64;53.20
55263;BME280;41125;48.752;9.168;2022-10-30T00:41:22;97249.22;;;17.63;53.42
55263;BME280;41125;48.752;9.168;2022-10-30T00:41:56;97246.19;;;17.65;53.13
55263;BME280;41125;48.752;9.168;2022-10-30T00:42:29;97247.00;;;17.65;53.41
55263;BME280;41125;48.752;9.168;2022-10-30T00:43:01;97242.31;;;17.66;53.18
55263;BME280;41125;48.752;9.168;2022-10-30T00:43:37;97243.91;;;17.67;53.32
55263;BME280;41125;48.752;9.168;2022-10-30T00:44:31;97241.19;;;17.67;53.40
55263;BME280;41125;48.752;9.168;2022-10-30T00:45:06;97240.00;;;17.68;52.72
55263;BME280;41125;48.752;9.168;2022-10-30T00:45:37;97245.50;;;17.68;53.20
55263;BME280;41125;48.752;9.168;2022-10-30T00:46:36;97242.75;;;17.68;52.94
55263;BME280;41125;48.752;9.168;2022-10-30T00:48:04;97237.75;;;17.70;52.80
55263;BME280;41125;48.752;9.168;2022-10-30T00:48:36;97237.75;;;17.70;53.01
55263;BME280;41125;48.752;9.168;2022-10-30T00:49:15;97237.88;;;17.73;52.34
55263;BME280;41125;48.752;9.168;2022-10-30T00:50:05;97234.00;;;17.74;52.23
55263;BME280;41125;48.752;9.168;2022-10-30T00:50:39;97232.41;;;17.73;52.31
55263;BME280;41125;48.752;9.168;2022-10-30T00:51:12;97234.81;;;17.75;52.32
55263;BME280;41125;48.752;9.168;2022-10-30T00:51:48;97232.56;;;17.77;52.41
55263;BME280;41125;48.752;9.168;2022-10-30T00:52:22;97233.34;;;17.78;52.50
55263;BME280;41125;48.752;9.168;2022-10-30T00:53:14;97231.41;;;17.78;52.79
55263;BME280;41125;48.752;9.168;2022-10-30T00:53:47;97233.81;;;17.80;52.28
55263;BME280;41125;48.752;9.168;2022-10-30T00:54:21;97231.88;;;17.80;52.18
55263;BME280;41125;48.752;9.168;2022-10-30T00:54:54;97236.56;;;17.80;52.10
55263;BME280;41125;48.752;9.168;2022-10-30T00:55:56;97237.38;;;17.80;52.41
55263;BME280;41125;48.752;9.168;2022-10-30T00:56:29;97233.03;;;17.79;52.44
55263;BME280;41125;48.752;9.168;2022-10-30T00:57:03;97231.09;;;17.80;52.69
55263;BME280;41125;48.752;9.168;2022-10-30T00:57:37;97234.63;;;17.80;52.18
55263;BME280;41125;48.752;9.168;2022-10-30T00:58:13;97229.63;;;17.82;52.19
55263;BME280;41125;48.752;9.168;2022-10-30T00:58:50;97229.63;;;17.82;52.23
55263;BME280;41125;48.752;9.168;2022-10-30T00:59:25;97232.38;;;17.82;52.06
55263;BME280;41125;48.752;9.168;2022-10-30T00:59:59;97230.44;;;17.83;51.98
55263;BME280;41125;48.752;9.168;2022-10-30T01:00:31;97235.91;;;17.83;51.95
55263;BME280;41125;48.752;9.168;2022-10-30T01:01:07;97235.91;;;17.83;52.30
55263;BME280;41125;48.752;9.168;2022-10-30T01:01:42;97229.63;;;17.82;52.33
55263;BME280;41125;48.752;9.168;2022-10-30T01:02:16;97225.75;;;17.83;52.35
55263;BME280;41125;48.752;9.168;2022-10-30T01:02:50;97231.22;;;17.83;52.64
55263;BME280;41125;48.752;9.168;2022-10-30T01:03:23;97227.34;;;17.84;52.36
55263;BME280;41125;48.752;9.168;2022-10-30T01:03:57;97228.97;;;17.85;52.31
55263;BME280;41125;48.752;9.168;2022-10-30T01:04:32;97223.94;;;17.87;51.55
55263;BME280;41125;48.752;9.168;2022-10-30T01:05:05;97225.56;;;17.88;51.35
55263;BME280;41125;48.752;9.168;2022-10-30T01:05:38;97215.03;;;17.90;51.94
55263;BME280;41125;48.752;9.168;2022-10-30T01:06:11;97222.47;;;17.90;51.53
55263;BME280;41125;48.752;9.168;2022-10-30T01:06:48;97223.28;;;17.90;51.82
55263;BME280;41125;48.752;9.168;2022-10-30T01:07:21;97224.41;;;17.89;51.79
55263;BME280;41125;48.752;9.168;2022-10-30T01:07:53;97226.03;;;17.90;51.99
55263;BME280;41125;48.752;9.168;2022-10-30T01:08:24;97226.03;;;17.90;51.69
55263;BME280;41125;48.752;9.168;2022-10-30T01:08:57;97228.78;;;17.90;52.13
55263;BME280;41125;48.752;9.168;2022-10-30T01:09:32;97235.41;;;17.89;52.18
55263;BME280;41125;48.752;9.168;2022-10-30T01:10:04;97231.03;;;17.88;51.91
55263;BME280;41125;48.752;9.168;2022-10-30T01:10:35;97217.31;;;17.88;51.85
55263;BME280;41125;48.752;9.168;2022-10-30T01:11:08;97217.31;;;17.88;52.29
55263;BME280;41125;48.752;9.168;2022-10-30T01:11:40;97228.31;;;17.88;52.00
55263;BME280;41125;48.752;9.168;2022-10-30T01:12:11;97225.56;;;17.88;52.33
55263;BME280;41125;48.752;9.168;2022-10-30T01:12:43;97225.56;;;17.88;52.16
55263;BME280;41125;48.752;9.168;2022-10-30T01:13:20;97219.59;;;17.86;51.43
55263;BME280;41125;48.752;9.168;2022-10-30T01:13:55;97230.56;;;17.86;51.62
55263;BME280;41125;48.752;9.168;2022-10-30T01:14:28;97219.59;;;17.86;52.06
55263;BME280;41125;48.752;9.168;2022-10-30T01:15:01;97226.69;;;17.87;51.90
55263;BME280;41125;48.752;9.168;2022-10-30T01:15:35;97219.59;;;17.86;51.83
55263;BME280;41125;48.752;9.168;2022-10-30T01:16:50;97215.72;;;17.87;52.05
55263;BME280;41125;48.752;9.168;2022-10-30T01:17:48;97218.94;;;17.89;51.66
55263;BME280;41125;48.752;9.168;2022-10-30T01:21:17;97224.41;;;17.89;51.74
55263;BME280;41125;48.752;9.168;2022-10-30T01:22:18;97226.69;;;17.87;52.05
55263;BME280;41125;48.752;9.168;2022-10-30T01:23:35;97227.03;;;17.86;52.16
55263;BME280;41125;48.752;9.168;2022-10-30T01:24:48;97238.31;;;17.84;52.54
55263;BME280;41125;48.752;9.168;2022-10-30T01:27:06;97243.81;;;17.84;53.31
55263;BME280;41125;48.752;9.168;2022-10-30T01:29:17;97254.75;;;17.55;56.20
55263;BME280;41125;48.752;9.168;2022-10-30T01:30:15;97263.19;;;17.41;57.38
55263;BME280;41125;48.752;9.168;2022-10-30T01:32:39;97274.88;;;17.03;59.09
55263;BME280;41125;48.752;9.168;2022-10-30T01:34:48;97256.22;;;16.88;58.47
55263;BME280;41125;48.752;9.168;2022-10-30T01:35:39;97268.31;;;16.79;58.96
55263;BME280;41125;48.752;9.168;2022-10-30T01:36:23;97266.38;;;16.70;60.01
55263;BME280;41125;48.752;9.168;2022-10-30T01:37:03;97269.28;;;16.65;58.70
55263;BME280;41125;48.752;9.168;2022-10-30T01:38:05;97263.94;;;16.60;59.63
55263;BME280;41125;48.752;9.168;2022-10-30T01:39:09;97266.34;;;16.53;60.64
55263;BME280;41125;48.752;9.168;2022-10-30T01:39:42;97271.50;;;16.46;61.00
55263;BME280;41125;48.752;9.168;2022-10-30T01:40:16;97271.66;;;16.41;61.72
55263;BME280;41125;48.752;9.168;2022-10-30T01:40:54;97274.56;;;16.36;61.91
55263;BME280;41125;48.752;9.168;2022-10-30T01:41:25;97267.97;;;16.28;61.46
55263;BME280;41125;48.752;9.168;2022-10-30T01:41:56;97261.84;;;16.23;61.27
55263;BME280;41125;48.752;9.168;2022-10-30T01:42:57;97268.59;;;16.17;61.72
55263;BME280;41125;48.752;9.168;2022-10-30T01:43:30;97268.41;;;16.13;61.63
55263;BME280;41125;48.752;9.168;2022-10-30T01:44:11;97258.91;;;16.11;61.09
55263;BME280;41125;48.752;9.168;2022-10-30T01:44:44;97260.50;;;16.12;61.14
55263;BME280;41125;48.752;9.168;2022-10-30T01:45:59;97264.69;;;16.09;61.88
55263;BME280;41125;48.752;9.168;2022-10-30T01:46:53;97254.38;;;16.06;61.05
55263;BME280;41125;48.752;9.168;2022-10-30T01:49:15;97258.06;;;16.01;63.16
55263;BME280;41125;48.752;9.168;2022-10-30T01:50:15;97253.88;;;15.95;62.95
55263;BME280;41125;48.752;9.168;2022-10-30T01:53:45;97246.31;;;15.92;61.71
55263;BME280;41125;48.752;9.168;2022-10-30T01:55:53;97244.03;;;15.94;61.32
55263;BME280;41125;48.752;9.168;2022-10-30T01:56:56;97246.78;;;15.94;61.20
55263;BME280;41125;48.752;9.168;2022-10-30T01:57:54;97242.59;;;15.97;61.02
55263;BME280;41125;48.752;9.168;2022-10-30T01:58:42;97242.28;;;15.98;60.40
55263;BME280;41125;48.752;9.168;2022-10-30T01:59:23;97233.44;;;16.01;60.51
55263;BME280;41125;48.752;9.168;2022-10-30T01:59:57;97238.91;;;16.01;60.52
55263;BME280;41125;48.752;9.168;2022-10-30T02:00:30;97229.56;;;16.02;60.31
55263;BME280;41125;48.752;9.168;2022-10-30T02:01:02;97232.81;;;16.04;60.18
55263;BME280;41125;48.752;9.168;2022-10-30T02:01:35;97231.69;;;16.05;60.19
55263;BME280;41125;48.752;9.168;2022-10-30T02:02:08;97232.16;;;16.07;59.68
55263;BME280;41125;48.752;9.168;2022-10-30T02:02:41;97227.50;;;16.08;59.59
55263;BME280;41125;48.752;9.168;2022-10-30T02:03:13;97237.00;;;16.11;59.66
55263;BME280;41125;48.752;9.168;2022-10-30T02:03:45;97230.41;;;16.12;59.46
55263;BME280;41125;48.752;9.168;2022-10-30T02:04:18;97230.91;;;16.14;59.56
55263;BME280;41125;48.752;9.168;2022-10-30T02:04:50;97228.63;;;16.16;59.33
55263;BME280;41125;48.752;9.168;2022-10-30T02:05:30;97231.88;;;16.18;59.07
55263;BME280;41125;48.752;9.168;2022-10-30T02:06:04;97228.81;;;16.19;59.29
55263;BME280;41125;48.752;9.168;2022-10-30T02:06:36;97220.28;;;16.21;58.99
55263;BME280;41125;48.752;9.168;2022-10-30T02:07:12;97226.25;;;16.23;59.17
55263;BME280;41125;48.752;9.168;2022-10-30T02:07:44;97226.72;;;16.25;59.13
55263;BME280;41125;48.752;9.168;2022-10-30T02:08:15;97232.19;;;16.25;59.23
55263;BME280;41125;48.752;9.168;2022-10-30T02:08:47;97224.47;;;16.27;59.05
55263;BME280;41125;48.752;9.168;2022-10-30T02:09:18;97220.59;;;16.28;59.22
55263;BME280;41125;48.752;9.168;2022-10-30T02:09:50;97223.00;;;16.29;59.05
55263;BME280;41125;48.752;9.168;2022-10-30T02:10:22;97219.94;;;16.31;59.07
55263;BME280;41125;48.752;9.168;2022-10-30T02:10:54;97220.41;;;16.33;58.80
55263;BME280;41125;48.752;9.168;2022-10-30T02:11:26;97220.09;;;16.34;58.86
55263;BME280;41125;48.752;9.168;2022-10-30T02:11:59;97215.44;;;16.35;58.66
55263;BME280;41125;48.752;9.168;2022-10-30T02:12:31;97214.31;;;16.36;58.66
55263;BME280;41125;48.752;9.168;2022-10-30T02:13:03;97213.19;;;16.37;58.37
55263;BME280;41125;48.752;9.168;2022-10-30T02:13:36;97216.72;;;16.37;58.57
55263;BME280;41125;48.752;9.168;2022-10-30T02:14:08;97210.13;;;16.38;58.37
55263;BME280;41125;48.752;9.168;2022-10-30T02:14:43;97217.22;;;16.39;58.55
55263;BME280;41125;48.752;9.168;2022-10-30T02:15:15;97215.28;;;16.40;58.34
55263;BME280;41125;48.752;9.168;2022-10-30T02:15:48;97210.94;;;16.39;58.25
55263;BME280;41125;48.752;9.168;2022-10-30T02:16:23;97218.81;;;16.40;58.16
55263;BME280;41125;48.752;9.168;2022-10-30T02:16:56;97219.63;;;16.41;58.38
55263;BME280;41125;48.752;9.168;2022-10-30T02:17:32;97210.28;;;16.42;58.14
55263;BME280;41125;48.752;9.168;2022-10-30T02:18:03;97221.25;;;16.42;58.22
55263;BME280;41125;48.752;9.168;2022-10-30T02:18:35;97217.38;;;16.43;58.27
55263;BME280;41125;48.752;9.168;2022-10-30T02:19:06;97215.12;;;16.45;57.97
55263;BME280;41125;48.752;9.168;2022-10-30T02:19:38;97211.56;;;16.45;57.98
55263;BME280;41125;48.752;9.168;2022-10-30T02:20:17;97209.97;;;16.43;58.31
55263;BME280;41125;48.752;9.168;2022-10-30T02:20:49;97214.31;;;16.45;58.35
55263;BME280;41125;48.752;9.168;2022-10-30T02:21:20;97213.50;;;16.44;58.34
55263;BME280;41125;48.752;9.168;2022-10-30T02:21:54;97211.91;;;16.43;58.31
55263;BME280;41125;48.752;9.168;2022-10-30T02:22:26;97211.09;;;16.42;58.77
55263;BME280;41125;48.752;9.168;2022-10-30T02:22:58;97216.09;;;16.40;58.79
55263;BME280;41125;48.752;9.168;2022-10-30T02:23:29;97210.13;;;16.38;59.06
55263;BME280;41125;48.752;9.168;2022-10-30T02:24:01;97213.19;;;16.37;58.67
55263;BME280;41125;48.752;9.168;2022-10-30T02:24:32;97210.44;;;16.37;58.92
55263;BME280;41125;48.752;9.168;2022-10-30T02:25:05;97211.56;;;16.36;59.11
55263;BME280;41125;48.752;9.168;2022-10-30T02:25:36;97211.56;;;16.36;59.27
55263;BME280;41125;48.752;9.168;2022-10-30T02:26:07;97213.81;;;16.34;60.01
55263;BME280;41125;48.752;9.168;2022-10-30T02:26:39;97218.50;;;16.33;59.18
55263;BME280;41125;48.752;9.168;2022-10-30T02:27:11;97215.75;;;16.33;59.08
55263;BME280;41125;48.752;9.168;2022-10-30T02:27:42;97214.94;;;16.33;59.23
55263;BME280;41125;48.752;9.168;2022-10-30T02:28:13;97216.06;;;16.32;58.97
55263;BME280;41125;48.752;9.168;2022-10-30T02:28:45;97210.59;;;16.32;59.19
55263;BME280;41125;48.752;9.168;2022-10-30T02:29:16;97198.84;;;16.31;58.85
55263;BME280;41125;48.752;9.168;2022-10-30T02:29:50;97215.25;;;16.31;59.29
55263;BME280;41125;48.752;9.168;2022-10-30T02:30:22;97215.59;;;16.30;59.11
55263;BME280;41125;48.752;9.168;2022-10-30T02:30:53;97215.94;;;16.28;59.31
55263;BME280;41125;48.752;9.168;2022-10-30T02:31:25;97213.53;;;16.27;59.05
55263;BME280;41125;48.752;9.168;2022-10-30T02:31:56;97219.00;;;16.27;59.57
55263;BME280;41125;48.752;9.168;2022-10-30T02:32:27;97218.50;;;16.25;59.44
55263;BME280;41125;48.752;9.168;2022-10-30T02:32:58;97219.63;;;16.24;59.85
55263;BME280;41125;48.752;9.168;2022-10-30T02:33:29;97214.81;;;16.21;59.41
55263;BME280;41125;48.752;9.168;2022-10-30T02:34:03;97219.47;;;16.20;59.57
55263;BME280;41125;48.752;9.168;2022-10-30T02:34:34;97217.84;;;16.19;59.93
55263;BME280;41125;48.752;9.168;2022-10-30T02:35:07;97219.31;;;16.17;59.88
55263;BME280;41125;48.752;9.168;2022-10-30T02:35:39;97221.56;;;16.15;60.03
55263;BME280;41125;48.752;9.168;2022-10-30T02:36:10;97211.72;;;16.14;60.23
55263;BME280;41125;48.752;9.168;2022-10-30T02:36:41;97213.19;;;16.11;60.37
55263;BME280;41125;48.752;9.168;2022-10-30T02:37:12;97219.78;;;16.10;60.42
55263;BME280;41125;48.752;9.168;2022-10-30T02:37:47;97212.69;;;16.09;60.33
55263;BME280;41125;48.752;9.168;2022-10-30T02:38:18;97209.47;;;16.07;60.58
55263;BME280;41125;48.752;9.168;2022-10-30T02:38:50;97218.00;;;16.05;60.55
55263;BME280;41125;48.752;9.168;2022-10-30T02:39:25;97213.63;;;16.04;60.24
55263;BME280;41125;48.752;9.168;2022-10-30T02:39:56;97212.50;;;16.05;60.57
55263;BME280;41125;48.752;9.168;2022-10-30T02:40:28;97216.38;;;16.04;60.88
55263;BME280;41125;48.752;9.168;2022-10-30T02:41:01;97221.84;;;16.04;60.54
55263;BME280;41125;48.752;9.168;2022-10-30T02:41:33;97214.44;;;16.05;60.66
55263;BME280;41125;48.752;9.168;2022-10-30T02:42:04;97211.72;;;16.05;60.59
55263;BME280;41125;48.752;9.168;2022-10-30T02:42:36;97218.31;;;16.04;60.64
55263;BME280;41125;48.752;9.168;2022-10-30T02:43:07;97218.63;;;16.02;60.70
55263;BME280;41125;48.752;9.168;2022-10-30T02:43:38;97219.75;;;16.01;60.44
55263;BME280;41125;48.752;9.168;2022-10-30T02:44:10;97211.53;;;16.01;60.66
55263;BME280;41125;48.752;9.168;2022-10-30T02:44:42;97211.53;;;16.01;60.96
55263;BME280;41125;48.752;9.168;2022-10-30T02:45:13;97216.22;;;16.01;60.93
55263;BME280;41125;48.752;9.168;2022-10-30T02:45:49;97213.78;;;15.99;61.07
55263;BME280;41125;48.752;9.168;2022-10-30T02:46:21;97214.59;;;16.00;61.01
55263;BME280;41125;48.752;9.168;2022-10-30T02:46:53;97212.97;;;15.99;61.09
55263;BME280;41125;48.752;9.168;2022-10-30T02:47:25;97218.47;;;15.99;60.79
55263;BME280;41125;48.752;9.168;2022-10-30T02:48:00;97214.44;;;15.96;60.78
55263;BME280;41125;48.752;9.168;2022-10-30T02:48:32;97214.44;;;15.96;60.83
55263;BME280;41125;48.752;9.168;2022-10-30T02:49:04;97207.69;;;15.94;61.08
55263;BME280;41125;48.752;9.168;2022-10-30T02:49:36;97216.69;;;15.94;60.93
55263;BME280;41125;48.752;9.168;2022-10-30T02:50:08;97209.63;;;15.93;61.05
55263;BME280;41125;48.752;9.168;2022-10-30T02:50:40;97211.56;;;15.93;60.61
55263;BME280;41125;48.752;9.168;2022-10-30T02:51:11;97212.34;;;15.93;60.92
55263;BME280;41125;48.752;9.168;2022-10-30T02:51:42;97202.53;;;15.92;60.60
55263;BME280;41125;48.752;9.168;2022-10-30T02:52:13;97208.00;;;15.92;60.64
55263;BME280;41125;48.752;9.168;2022-10-30T02:52:44;97203.34;;;15.93;60.54
55263;BME280;41125;48.752;9.168;2022-10-30T02:53:16;97206.22;;;15.96;60.27
55263;BME280;41125;48.752;9.168;2022-10-30T02:53:47;97210.56;;;15.97;60.56
55263;BME280;41125;48.752;9.168;2022-10-30T02:54:18;97204.78;;;15.99;60.24
55263;BME280;41125;48.752;9.168;2022-10-30T02:54:49;97204.47;;;16.00;60.53
55263;BME280;41125;48.752;9.168;2022-10-30T02:55:21;97203.66;;;16.00;60.15
55263;BME280;41125;48.752;9.168;2022-10-30T02:55:52;97204.47;;;16.00;60.22
55263;BME280;41125;48.752;9.168;2022-10-30T02:56:24;97208.81;;;16.01;60.62
55263;BME280;41125;48.752;9.168;2022-10-30T02:56:55;97203.66;;;16.00;60.56
55263;BME280;41125;48.752;9.168;2022-10-30T02:57:27;97205.09;;;15.97;60.56
55263;BME280;41125;48.752;9.168;2022-10-30T02:58:00;97208.97;;;15.96;60.80
55263;BME280;41125;48.752;9.168;2022-10-30T02:58:33;97207.34;;;15.95;60.75
55263;BME280;41125;48.752;9.168;2022-10-30T02:59:04;97203.47;;;15.96;60.92
55263;BME280;41125;48.752;9.168;2022-10-30T02:59:36;97207.34;;;15.95;60.99
55263;BME280;41125;48.752;9.168;2022-10-30T03:00:08;97222.16;;;15.94;61.17
55263;BME280;41125;48.752;9.168;2022-10-30T03:00:40;97212.69;;;15.92;61.49
55263;BME280;41125;48.752;9.168;2022-10-30T03:01:14;97216.84;;;15.89;61.11
55263;BME280;41125;48.752;9.168;2022-10-30T03:01:46;97212.19;;;15.90;61.25
55263;BME280;41125;48.752;9.168;2022-10-30T03:02:18;97207.03;;;15.88;61.36
55263;BME280;41125;48.752;9.168;2022-10-30T03:02:54;97216.38;;;15.87;61.02
55263;BME280;41125;48.752;9.168;2022-10-30T03:03:26;97213.94;;;15.86;61.39
55263;BME280;41125;48.752;9.168;2022-10-30T03:03:57;97217.00;;;15.84;61.73
55263;BME280;41125;48.752;9.168;2022-10-30T03:04:29;97219.25;;;15.82;61.64
55263;BME280;41125;48.752;9.168;2022-10-30T03:05:00;97213.78;;;15.82;61.80
55263;BME280;41125;48.752;9.168;2022-10-30T03:05:32;97217.63;;;15.81;61.50
55263;BME280;41125;48.752;9.168;2022-10-30T03:06:05;97216.03;;;15.80;61.91
55263;BME280;41125;48.752;9.168;2022-10-30T03:06:37;97218.13;;;15.83;61.99
55263;BME280;41125;48.752;9.168;2022-10-30T03:07:08;97213.78;;;15.82;62.08
55263;BME280;41125;48.752;9.168;2022-10-30T03:07:39;97218.28;;;15.78;62.49
55263;BME280;41125;48.752;9.168;2022-10-30T03:08:11;97207.31;;;15.78;62.26
55263;BME280;41125;48.752;9.168;2022-10-30T03:08:42;97209.56;;;15.76;62.08
55263;BME280;41125;48.752;9.168;2022-10-30T03:09:14;97211.81;;;15.74;62.32
55263;BME280;41125;48.752;9.168;2022-10-30T03:09:45;97205.84;;;15.72;62.11
55263;BME280;41125;48.752;9.168;2022-10-30T03:10:18;97212.44;;;15.71;62.55
55263;BME280;41125;48.752;9.168;2022-10-30T03:10:49;97206.50;;;15.69;62.16
55263;BME280;41125;48.752;9.168;2022-10-30T03:11:20;97209.84;;;15.66;63.38
55263;BME280;41125;48.752;9.168;2022-10-30T03:11:52;97205.03;;;15.63;63.03
55263;BME280;41125;48.752;9.168;2022-10-30T03:12:23;97206.47;;;15.60;62.98
55263;BME280;41125;48.752;9.168;2022-10-30T03:12:54;97206.47;;;15.60;63.11
55263;BME280;41125;48.752;9.168;2022-10-30T03:13:27;97211.94;;;15.60;62.81
55263;BME280;41125;48.752;9.168;2022-10-30T03:14:02;97209.53;;;15.59;63.26
55263;BME280;41125;48.752;9.168;2022-10-30T03:14:33;97205.19;;;15.58;62.99
55263;BME280;41125;48.752;9.168;2022-10-30T03:15:07;97205.50;;;15.56;63.14
55263;BME280;41125;48.752;9.168;2022-10-30T03:15:38;97208.72;;;15.58;63.33
55263;BME280;41125;48.752;9.168;2022-10-30T03:16:18;97217.25;;;15.57;64.21
55263;BME280;41125;48.752;9.168;2022-10-30T03:16:51;97206.09;;;15.53;63.48
55263;BME280;41125;48.752;9.168;2022-10-30T03:17:22;97207.53;;;15.51;63.72
55263;BME280;41125;48.752;9.168;2022-10-30T03:17:53;97205.94;;;15.50;63.86
55263;BME280;41125;48.752;9.168;2022-10-30T03:18:25;97206.56;;;15.47;63.56
55263;BME280;41125;48.752;9.168;2022-10-30T03:18:57;97214.13;;;15.50;64.12
55263;BME280;41125;48.752;9.168;2022-10-30T03:19:29;97204.31;;;15.49;64.08